createdAt,value
2019-03-06T00:02:03.231Z,59.97
2019-03-06T00:07:07.499Z,59.65
2019-03-06T00:12:11.653Z,59.73
2019-03-06T00:17:15.929Z,59.94
2019-03-06T00:22:19.952Z,60.20
2019-03-06T00:27:24.127Z,60.09
2019-03-06T00:32:28.178Z,60.50
2019-03-06T00:37:32.584Z,60.74
2019-03-06T00:42:42.853Z,60.74
2019-03-06T00:47:46.966Z,60.55
2019-03-06T00:52:51.161Z,60.70
2019-03-06T00:57:55.321Z,61.16
2019-03-06T01:02:59.552Z,60.86
2019-03-06T01:08:03.955Z,61.08
2019-03-06T01:13:08.096Z,60.81
2019-03-06T01:18:12.548Z,61.57
2019-03-06T01:23:16.630Z,61.63
2019-03-06T01:28:20.901Z,61.60
2019-03-06T01:33:49.258Z,61.41
2019-03-06T01:39:24.277Z,61.56
2019-03-06T01:44:47.368Z,61.56
2019-03-06T01:49:51.671Z,61.93
2019-03-06T01:54:55.764Z,62.24
2019-03-06T01:59:59.802Z,61.97
2019-03-06T02:05:04.088Z,61.98
2019-03-06T02:10:09.705Z,62.30
2019-03-06T02:15:15.563Z,62.81
2019-03-06T02:20:19.879Z,62.63
2019-03-06T02:25:24.042Z,62.77
2019-03-06T02:30:28.273Z,62.41
2019-03-06T02:35:32.366Z,63.03
2019-03-06T02:40:36.420Z,62.86
2019-03-06T02:45:40.557Z,62.87
2019-03-06T02:50:44.885Z,62.80
2019-03-06T02:55:49.009Z,62.69
2019-03-06T03:01:04.438Z,62.90
2019-03-06T03:06:14.352Z,62.85
2019-03-06T03:11:18.395Z,62.63
2019-03-06T03:16:22.447Z,63.31
2019-03-06T03:21:27.104Z,63.13
2019-03-06T03:26:31.582Z,62.98
2019-03-06T03:31:35.621Z,63.27
2019-03-06T03:36:39.698Z,63.82
2019-03-06T03:41:43.990Z,63.49
2019-03-06T03:46:48.214Z,63.89
2019-03-06T03:51:52.505Z,63.89
2019-03-06T03:56:56.577Z,63.59
2019-03-06T04:02:00.790Z,63.73
2019-03-06T04:07:05.042Z,63.93
2019-03-06T04:12:09.237Z,63.65
2019-03-06T04:17:13.299Z,63.49
2019-03-06T04:22:17.583Z,63.87
2019-03-06T04:27:21.658Z,63.87
2019-03-06T04:32:25.689Z,64.02
2019-03-06T04:37:29.739Z,63.94
2019-03-06T04:42:33.955Z,64.34
2019-03-06T04:47:41.422Z,64.27
2019-03-06T04:52:45.227Z,63.41
2019-03-06T04:57:49.290Z,63.30
2019-03-06T05:02:53.478Z,63.51
2019-03-06T05:07:57.563Z,63.55
2019-03-06T05:13:01.643Z,63.51
2019-03-06T05:18:20.025Z,63.31
2019-03-06T05:23:24.114Z,62.83
2019-03-06T05:28:28.254Z,62.65
2019-03-06T05:33:32.414Z,62.64
2019-03-06T05:38:41.490Z,62.89
2019-03-06T05:43:45.670Z,62.89
2019-03-06T05:48:49.731Z,62.63
2019-03-06T05:53:53.833Z,62.58
2019-03-06T05:58:57.920Z,63.05
2019-03-06T06:04:02.088Z,62.71
2019-03-06T06:09:07.341Z,62.90
2019-03-06T06:14:11.598Z,63.02
2019-03-06T06:19:15.677Z,62.69
2019-03-06T06:24:22.639Z,62.50
2019-03-06T06:29:26.765Z,62.77
2019-03-06T06:34:30.948Z,62.41
2019-03-06T06:39:35.014Z,62.73
2019-03-06T06:44:39.260Z,62.77
2019-03-06T06:49:43.359Z,62.58
2019-03-06T06:54:57.008Z,62.82
2019-03-06T07:01:08.482Z,62.62
2019-03-06T07:06:28.571Z,62.67
2019-03-06T07:11:50.468Z,62.54
2019-03-06T07:17:04.842Z,62.36
2019-03-06T07:22:27.970Z,62.51
2019-03-06T07:27:48.217Z,62.51
2019-03-06T07:32:58.507Z,62.56
2019-03-06T07:38:05.492Z,62.56
2019-03-06T07:43:28.716Z,46.96
2019-03-06T07:49:22.379Z,48.27
2019-03-06T07:54:51.758Z,49.16
2019-03-06T07:59:56.274Z,50.79
2019-03-06T08:05:00.365Z,51.02
2019-03-06T08:10:11.599Z,52.03
2019-03-06T08:15:47.156Z,52.03
2019-03-06T08:21:22.643Z,52.18
2019-03-06T08:26:26.953Z,51.94
2019-03-06T08:31:43.578Z,47.26
2019-03-06T08:36:47.998Z,47.02
2019-03-06T08:41:52.313Z,47.07
2019-03-06T08:47:18.363Z,47.88
2019-03-06T08:52:41.644Z,48.56
2019-03-06T08:58:23.212Z,48.56
2019-03-06T09:03:44.652Z,49.17
2019-03-06T09:09:16.033Z,49.17
2019-03-06T09:14:30.407Z,50.10
2019-03-06T09:19:57.539Z,51.32
2019-03-06T09:25:07.466Z,51.32
2019-03-06T09:30:31.428Z,52.40
2019-03-06T09:41:07.441Z,53.40
2019-03-06T09:46:36.297Z,53.65
2019-03-06T09:52:13.995Z,53.65
2019-03-06T10:03:33.115Z,54.03
2019-03-06T10:09:04.601Z,54.03
2019-03-06T10:14:42.135Z,54.90
2019-03-06T10:20:24.796Z,54.68
2019-03-06T10:25:32.210Z,54.84
2019-03-06T10:30:44.272Z,55.34
2019-03-06T10:36:05.233Z,54.90
2019-03-06T10:41:23.945Z,55.07
2019-03-06T10:51:57.883Z,55.21
2019-03-06T11:03:30.012Z,55.58
2019-03-06T11:08:37.339Z,55.11
2019-03-06T11:13:41.678Z,54.49
2019-03-06T11:18:46.074Z,54.01
2019-03-06T11:23:50.597Z,54.01
2019-03-06T11:28:55.016Z,54.48
2019-03-06T11:33:59.303Z,55.35
2019-03-06T11:39:04.910Z,55.37
2019-03-06T11:44:09.323Z,55.37
2019-03-06T11:49:13.531Z,56.05
2019-03-06T11:54:17.709Z,56.05
2019-03-06T11:59:21.823Z,55.46
2019-03-06T12:04:26.338Z,55.98
2019-03-06T12:09:34.005Z,56.15
2019-03-06T12:14:38.157Z,56.12
2019-03-06T12:19:42.288Z,55.69
2019-03-06T12:24:46.496Z,56.13
2019-03-06T12:29:50.648Z,55.56
2019-03-06T12:34:54.726Z,55.97
2019-03-06T12:39:59.072Z,55.84
2019-03-06T12:45:03.522Z,56.37
2019-03-06T12:50:10.730Z,56.37
2019-03-06T12:55:15.324Z,55.71
2019-03-06T13:00:21.289Z,55.09
2019-03-06T13:05:25.877Z,55.09
2019-03-06T13:10:30.075Z,53.83
2019-03-06T13:15:34.191Z,53.72
2019-03-06T13:20:38.425Z,53.72
2019-03-06T13:25:42.809Z,54.25
2019-03-06T13:30:47.219Z,53.08
2019-03-06T13:35:51.591Z,54.77
2019-03-06T13:40:55.772Z,54.03
2019-03-06T13:45:59.949Z,55.55
2019-03-06T13:51:06.008Z,53.61
2019-03-06T13:56:10.412Z,53.61
2019-03-06T14:01:15.050Z,52.97
2019-03-06T14:06:19.503Z,52.98
2019-03-06T14:11:23.785Z,52.39
2019-03-06T14:16:28.024Z,52.39
2019-03-06T14:21:32.262Z,52.82
2019-03-06T14:26:36.516Z,53.40
2019-03-06T14:31:40.623Z,53.40
2019-03-06T14:36:46.442Z,52.51
2019-03-06T14:41:50.617Z,52.51
2019-03-06T14:46:54.720Z,53.00
2019-03-06T14:52:06.849Z,52.49
2019-03-06T14:57:15.954Z,52.06
2019-03-06T15:02:20.623Z,51.89
2019-03-06T15:07:36.125Z,52.31
2019-03-06T15:12:40.159Z,53.09
2019-03-06T15:17:44.693Z,51.92
2019-03-06T15:28:19.043Z,52.60
2019-03-06T15:33:58.464Z,52.60
2019-03-06T15:45:42.897Z,52.45
2019-03-06T15:50:56.129Z,52.66
2019-03-06T15:55:52.220Z,52.19
2019-03-06T16:00:57.314Z,52.36
2019-03-06T17:09:55.226Z,54.55
2019-03-06T17:15:02.762Z,54.01
2019-03-06T17:20:08.453Z,54.01
2019-03-06T17:25:12.800Z,52.98
2019-03-06T17:30:19.791Z,53.00
2019-03-06T17:35:24.995Z,52.76
2019-03-06T17:46:09.278Z,53.13
2019-03-06T17:51:14.731Z,53.13
2019-03-06T17:56:20.114Z,53.38
2019-03-06T18:01:24.517Z,52.95
2019-03-06T18:06:31.253Z,53.10
2019-03-06T18:11:35.372Z,53.47
2019-03-06T18:16:46.564Z,53.08
2019-03-06T18:21:51.043Z,52.86
2019-03-06T18:26:56.042Z,53.17
2019-03-06T18:32:00.393Z,53.17
2019-03-06T18:37:05.227Z,53.23
2019-03-06T18:42:11.770Z,53.23
2019-03-06T18:47:25.719Z,53.11
2019-03-06T18:52:40.438Z,53.19
2019-03-06T18:57:48.104Z,53.06
2019-03-06T19:02:53.262Z,53.06
2019-03-06T19:08:00.890Z,53.46
2019-03-06T19:13:12.332Z,53.59
2019-03-06T19:18:18.838Z,53.32
2019-03-06T19:29:33.591Z,53.23
2019-03-06T19:35:08.784Z,53.35
2019-03-06T19:40:19.052Z,53.28
2019-03-06T19:45:24.054Z,53.38
2019-03-06T19:50:28.326Z,53.38
2019-03-06T19:55:32.731Z,52.82
2019-03-06T20:00:37.117Z,52.53
2019-03-06T20:05:41.583Z,52.52
2019-03-06T20:10:45.854Z,52.74
2019-03-06T20:15:50.121Z,52.73
2019-03-06T20:20:54.549Z,52.73
2019-03-06T20:25:58.754Z,52.97
2019-03-06T20:31:03.098Z,53.41
2019-03-06T20:36:07.540Z,53.48
2019-03-06T20:41:11.699Z,53.97
2019-03-06T20:46:16.227Z,53.72
2019-03-06T20:51:20.479Z,53.81
2019-03-06T20:56:24.605Z,53.81
2019-03-06T21:01:28.872Z,54.59
2019-03-06T21:06:35.576Z,54.58
2019-03-06T21:11:38.856Z,54.78
2019-03-06T21:16:42.969Z,55.13
2019-03-06T21:21:47.069Z,55.40
2019-03-06T21:26:51.243Z,55.20
2019-03-06T21:31:55.567Z,55.58
2019-03-06T21:36:59.860Z,55.84
2019-03-06T21:42:04.152Z,55.98
2019-03-06T21:47:08.346Z,56.02
2019-03-06T21:52:12.573Z,55.96
2019-03-06T21:57:16.792Z,55.91
2019-03-06T22:02:20.951Z,55.98
2019-03-06T22:07:25.135Z,56.08
2019-03-06T22:12:29.280Z,56.43
2019-03-06T22:17:33.937Z,56.05
2019-03-06T22:22:38.246Z,55.95
2019-03-06T22:27:42.656Z,56.08
2019-03-06T22:37:50.453Z,56.19
2019-03-06T22:42:55.029Z,56.34
2019-03-06T22:47:59.848Z,56.94
2019-03-06T22:53:04.283Z,56.88
2019-03-06T22:58:08.811Z,56.88
2019-03-06T23:03:14.236Z,56.88
2019-03-06T23:08:18.711Z,57.11
2019-03-06T23:13:23.096Z,56.88
2019-03-06T23:18:27.523Z,57.28
2019-03-06T23:23:32.170Z,57.37
2019-03-06T23:28:36.639Z,57.42
2019-03-06T23:33:41.022Z,57.21
2019-03-06T23:38:45.262Z,57.39
2019-03-06T23:43:49.614Z,57.47
2019-03-06T23:48:54.053Z,57.81
2019-03-06T23:53:58.510Z,57.55
2019-03-06T23:59:03.241Z,57.88
